<?xml version='1.0' encoding='UTF-8'?><gpx version="1.1" creator="JPX - https://github.com/jenetics/jpx" xmlns="http://www.topografix.com/GPX/1/1"><trk><trkseg><trkpt lat="45.009288" lon="7.820343"><ele>285.0</ele><time>2026-04-02T17:32:51.371Z</time></trkpt><trkpt lat="45.0092231" lon="7.8203941"><ele>285.0</ele><time>2026-04-02T18:04:15.35Z</time></trkpt><trkpt lat="45.0091523" lon="7.8203262"><ele>285.0</ele><time>2026-04-02T18:07:18.354Z</time></trkpt><trkpt lat="45.0090706" lon="7.8202982"><ele>285.0</ele><time>2026-04-02T18:07:42.339Z</time></trkpt><trkpt lat="45.0090021" lon="7.8202818"><ele>285.0</ele><time>2026-04-02T18:07:44.356Z</time></trkpt><trkpt lat="45.0089253" lon="7.8202259"><ele>285.0</ele><time>2026-04-02T18:07:46.366Z</time></trkpt><trkpt lat="45.0087999" lon="7.8202319"><ele>285.2</ele><time>2026-04-02T18:07:48.349Z</time></trkpt><trkpt lat="45.0087135" lon="7.8202053"><ele>285.4</ele><time>2026-04-02T18:07:49.358Z</time></trkpt><trkpt lat="45.0086173" lon="7.8201719"><ele>285.6</ele><time>2026-04-02T18:07:50.375Z</time></trkpt><trkpt lat="45.0085198" lon="7.8201385"><ele>285.8</ele><time>2026-04-02T18:07:51.358Z</time></trkpt><trkpt lat="45.0084007" lon="7.8201029"><ele>286.0</ele><time>2026-04-02T18:07:52.347Z</time></trkpt><trkpt lat="45.0082891" lon="7.8200564"><ele>285.40000000000003</ele><time>2026-04-02T18:07:53.357Z</time></trkpt><trkpt lat="45.0081817" lon="7.8200184"><ele>284.8</ele><time>2026-04-02T18:07:54.356Z</time></trkpt><trkpt lat="45.0080854" lon="7.8199808"><ele>284.20000000000005</ele><time>2026-04-02T18:07:55.365Z</time></trkpt><trkpt lat="45.0079978" lon="7.8199533"><ele>283.6</ele><time>2026-04-02T18:07:56.368Z</time></trkpt><trkpt lat="45.0079046" lon="7.8199211"><ele>283.0</ele><time>2026-04-02T18:07:57.362Z</time></trkpt><trkpt lat="45.0078102" lon="7.8198898"><ele>283.0</ele><time>2026-04-02T18:07:58.364Z</time></trkpt><trkpt lat="45.007718" lon="7.8198557"><ele>283.0</ele><time>2026-04-02T18:07:59.317Z</time></trkpt><trkpt lat="45.0076206" lon="7.8198192"><ele>283.0</ele><time>2026-04-02T18:08:00.369Z</time></trkpt><trkpt lat="45.0075397" lon="7.8197907"><ele>283.0</ele><time>2026-04-02T18:08:01.378Z</time></trkpt><trkpt lat="45.007468" lon="7.8197708"><ele>283.0</ele><time>2026-04-02T18:08:02.366Z</time></trkpt><trkpt lat="45.0073895" lon="7.8197479"><ele>283.0</ele><time>2026-04-02T18:08:03.364Z</time></trkpt><trkpt lat="45.0073123" lon="7.8197243"><ele>283.16666666666663</ele><time>2026-04-02T18:08:04.367Z</time></trkpt><trkpt lat="45.0072286" lon="7.8196981"><ele>283.3333333333333</ele><time>2026-04-02T18:08:05.374Z</time></trkpt><trkpt lat="45.0071515" lon="7.8196707"><ele>283.5</ele><time>2026-04-02T18:08:06.336Z</time></trkpt><trkpt lat="45.0070682" lon="7.8196353"><ele>283.6666666666667</ele><time>2026-04-02T18:08:07.368Z</time></trkpt><trkpt lat="45.0069898" lon="7.8196014"><ele>283.83333333333337</ele><time>2026-04-02T18:08:08.351Z</time></trkpt><trkpt lat="45.0069067" lon="7.8195634"><ele>284.0</ele><time>2026-04-02T18:08:09.351Z</time></trkpt><trkpt lat="45.0068228" lon="7.8195309"><ele>284.0</ele><time>2026-04-02T18:08:10.359Z</time></trkpt><trkpt lat="45.0067325" lon="7.8194971"><ele>284.0</ele><time>2026-04-02T18:08:11.353Z</time></trkpt><trkpt lat="45.0066327" lon="7.8194626"><ele>284.0</ele><time>2026-04-02T18:08:12.37Z</time></trkpt><trkpt lat="45.0065201" lon="7.819428"><ele>284.0</ele><time>2026-04-02T18:08:13.373Z</time></trkpt><trkpt lat="45.0064089" lon="7.8193914"><ele>284.0</ele><time>2026-04-02T18:08:14.355Z</time></trkpt><trkpt lat="45.0062923" lon="7.8193509"><ele>284.0</ele><time>2026-04-02T18:08:15.365Z</time></trkpt><trkpt lat="45.0061709" lon="7.8193078"><ele>284.0</ele><time>2026-04-02T18:08:16.366Z</time></trkpt><trkpt lat="45.0060514" lon="7.8192635"><ele>284.0</ele><time>2026-04-02T18:08:17.354Z</time></trkpt><trkpt lat="45.0059332" lon="7.8192151"><ele>284.0</ele><time>2026-04-02T18:08:18.37Z</time></trkpt><trkpt lat="45.0058276" lon="7.8191641"><ele>283.5</ele><time>2026-04-02T18:08:19.361Z</time></trkpt><trkpt lat="45.00573" lon="7.8191165"><ele>283.0</ele><time>2026-04-02T18:08:20.36Z</time></trkpt><trkpt lat="45.0056387" lon="7.8190694"><ele>282.5</ele><time>2026-04-02T18:08:21.356Z</time></trkpt><trkpt lat="45.0055603" lon="7.819024"><ele>282.0</ele><time>2026-04-02T18:08:22.358Z</time></trkpt><trkpt lat="45.0054898" lon="7.8189799"><ele>281.5</ele><time>2026-04-02T18:08:23.359Z</time></trkpt><trkpt lat="45.0054352" lon="7.8189274"><ele>281.0</ele><time>2026-04-02T18:08:25.376Z</time></trkpt><trkpt lat="45.0053565" lon="7.8188414"><ele>281.0</ele><time>2026-04-02T18:08:28.361Z</time></trkpt><trkpt lat="45.005279" lon="7.818766"><ele>281.0</ele><time>2026-04-02T18:08:29.37Z</time></trkpt><trkpt lat="45.0051906" lon="7.8186841"><ele>281.0</ele><time>2026-04-02T18:08:30.364Z</time></trkpt><trkpt lat="45.0050992" lon="7.8186027"><ele>281.0</ele><time>2026-04-02T18:08:31.342Z</time></trkpt><trkpt lat="45.0050001" lon="7.8185172"><ele>281.0</ele><time>2026-04-02T18:08:32.351Z</time></trkpt><trkpt lat="45.0048885" lon="7.8184288"><ele>280.33333333333337</ele><time>2026-04-02T18:08:33.356Z</time></trkpt><trkpt lat="45.0047611" lon="7.8183236"><ele>279.6666666666667</ele><time>2026-04-02T18:08:34.361Z</time></trkpt><trkpt lat="45.0046265" lon="7.8182044"><ele>279.0</ele><time>2026-04-02T18:08:35.348Z</time></trkpt><trkpt lat="45.0044995" lon="7.8180846"><ele>279.0</ele><time>2026-04-02T18:08:36.351Z</time></trkpt><trkpt lat="45.0043854" lon="7.8179863"><ele>279.0</ele><time>2026-04-02T18:08:37.315Z</time></trkpt><trkpt lat="45.0042677" lon="7.8178845"><ele>279.0</ele><time>2026-04-02T18:08:38.36Z</time></trkpt><trkpt lat="45.0041531" lon="7.8177854"><ele>279.0</ele><time>2026-04-02T18:08:39.355Z</time></trkpt><trkpt lat="45.0040267" lon="7.8176808"><ele>278.0</ele><time>2026-04-02T18:08:40.354Z</time></trkpt><trkpt lat="45.0038985" lon="7.8175719"><ele>277.0</ele><time>2026-04-02T18:08:41.363Z</time></trkpt><trkpt lat="45.0037817" lon="7.8174675"><ele>276.0</ele><time>2026-04-02T18:08:42.366Z</time></trkpt><trkpt lat="45.0036697" lon="7.8173723"><ele>275.0</ele><time>2026-04-02T18:08:43.369Z</time></trkpt><trkpt lat="45.0035508" lon="7.8172723"><ele>275.0</ele><time>2026-04-02T18:08:44.359Z</time></trkpt><trkpt lat="45.0034104" lon="7.8171534"><ele>275.0</ele><time>2026-04-02T18:08:45.36Z</time></trkpt><trkpt lat="45.0032596" lon="7.8170264"><ele>275.0</ele><time>2026-04-02T18:08:46.351Z</time></trkpt><trkpt lat="45.0031043" lon="7.8168986"><ele>275.0</ele><time>2026-04-02T18:08:47.342Z</time></trkpt><trkpt lat="45.0029543" lon="7.8167803"><ele>275.0</ele><time>2026-04-02T18:08:48.305Z</time></trkpt><trkpt lat="45.0027921" lon="7.8166478"><ele>275.0</ele><time>2026-04-02T18:08:49.359Z</time></trkpt><trkpt lat="45.0026375" lon="7.8165178"><ele>275.33333333333337</ele><time>2026-04-02T18:08:50.369Z</time></trkpt><trkpt lat="45.0024827" lon="7.8163848"><ele>275.6666666666667</ele><time>2026-04-02T18:08:51.361Z</time></trkpt><trkpt lat="45.0023224" lon="7.8162397"><ele>276.0</ele><time>2026-04-02T18:08:52.368Z</time></trkpt><trkpt lat="45.0021728" lon="7.8160921"><ele>277.0</ele><time>2026-04-02T18:08:53.355Z</time></trkpt><trkpt lat="45.0020324" lon="7.8159428"><ele>278.0</ele><time>2026-04-02T18:08:54.362Z</time></trkpt><trkpt lat="45.0019005" lon="7.8157921"><ele>279.0</ele><time>2026-04-02T18:08:55.369Z</time></trkpt><trkpt lat="45.0017798" lon="7.8156526"><ele>279.0</ele><time>2026-04-02T18:08:56.359Z</time></trkpt><trkpt lat="45.0016694" lon="7.8155206"><ele>279.0</ele><time>2026-04-02T18:08:57.353Z</time></trkpt><trkpt lat="45.001569" lon="7.8153915"><ele>279.0</ele><time>2026-04-02T18:08:58.364Z</time></trkpt><trkpt lat="45.001477" lon="7.8152676"><ele>279.0</ele><time>2026-04-02T18:08:59.366Z</time></trkpt><trkpt lat="45.0013932" lon="7.8151465"><ele>278.3333333333333</ele><time>2026-04-02T18:09:00.355Z</time></trkpt><trkpt lat="45.0013031" lon="7.8150084"><ele>277.66666666666663</ele><time>2026-04-02T18:09:01.363Z</time></trkpt><trkpt lat="45.0011991" lon="7.8148469"><ele>277.0</ele><time>2026-04-02T18:09:02.361Z</time></trkpt><trkpt lat="45.0010825" lon="7.8146709"><ele>277.0</ele><time>2026-04-02T18:09:03.351Z</time></trkpt><trkpt lat="45.0009502" lon="7.814486"><ele>277.0</ele><time>2026-04-02T18:09:04.364Z</time></trkpt><trkpt lat="45.0008122" lon="7.8142999"><ele>277.0</ele><time>2026-04-02T18:09:05.38Z</time></trkpt><trkpt lat="45.0006776" lon="7.8141109"><ele>277.0</ele><time>2026-04-02T18:09:06.366Z</time></trkpt><trkpt lat="45.0005452" lon="7.813917"><ele>277.0</ele><time>2026-04-02T18:09:07.37Z</time></trkpt><trkpt lat="45.0004211" lon="7.8137167"><ele>277.0</ele><time>2026-04-02T18:09:08.375Z</time></trkpt><trkpt lat="45.0003071" lon="7.813506"><ele>277.66666666666663</ele><time>2026-04-02T18:09:09.368Z</time></trkpt><trkpt lat="45.0001991" lon="7.8132966"><ele>278.3333333333333</ele><time>2026-04-02T18:09:10.346Z</time></trkpt><trkpt lat="45.0000931" lon="7.813071"><ele>279.0</ele><time>2026-04-02T18:09:11.378Z</time></trkpt><trkpt lat="45.0000052" lon="7.8128573"><ele>279.0</ele><time>2026-04-02T18:09:12.338Z</time></trkpt><trkpt lat="44.9999214" lon="7.8126294"><ele>279.0</ele><time>2026-04-02T18:09:13.365Z</time></trkpt><trkpt lat="44.9998454" lon="7.8124014"><ele>279.0</ele><time>2026-04-02T18:09:14.363Z</time></trkpt><trkpt lat="44.9997729" lon="7.8121678"><ele>279.0</ele><time>2026-04-02T18:09:15.367Z</time></trkpt><trkpt lat="44.9997058" lon="7.811932"><ele>279.0</ele><time>2026-04-02T18:09:16.364Z</time></trkpt><trkpt lat="44.9996492" lon="7.8116899"><ele>279.0</ele><time>2026-04-02T18:09:17.358Z</time></trkpt><trkpt lat="44.9996003" lon="7.8114296"><ele>279.3333333333333</ele><time>2026-04-02T18:09:18.361Z</time></trkpt><trkpt lat="44.9995623" lon="7.8111703"><ele>279.66666666666663</ele><time>2026-04-02T18:09:19.376Z</time></trkpt><trkpt lat="44.9995276" lon="7.8109272"><ele>280.0</ele><time>2026-04-02T18:09:20.35Z</time></trkpt><trkpt lat="44.9994912" lon="7.810691"><ele>280.5</ele><time>2026-04-02T18:09:21.356Z</time></trkpt><trkpt lat="44.9994619" lon="7.8104727"><ele>281.0</ele><time>2026-04-02T18:09:22.355Z</time></trkpt><trkpt lat="44.9994442" lon="7.8102738"><ele>281.5</ele><time>2026-04-02T18:09:23.376Z</time></trkpt><trkpt lat="44.9994344" lon="7.8101199"><ele>282.0</ele><time>2026-04-02T18:09:24.35Z</time></trkpt><trkpt lat="44.9994198" lon="7.8099937"><ele>282.1666666666667</ele><time>2026-04-02T18:09:25.362Z</time></trkpt><trkpt lat="44.9994031" lon="7.8098943"><ele>282.3333333333333</ele><time>2026-04-02T18:09:26.37Z</time></trkpt><trkpt lat="44.999382" lon="7.8097823"><ele>282.5</ele><time>2026-04-02T18:09:27.379Z</time></trkpt><trkpt lat="44.9993669" lon="7.8096652"><ele>282.66666666666663</ele><time>2026-04-02T18:09:28.376Z</time></trkpt><trkpt lat="44.9993681" lon="7.8095413"><ele>282.8333333333333</ele><time>2026-04-02T18:09:29.367Z</time></trkpt><trkpt lat="44.9993754" lon="7.8094352"><ele>283.0</ele><time>2026-04-02T18:09:30.349Z</time></trkpt><trkpt lat="44.9993738" lon="7.809333"><ele>283.75</ele><time>2026-04-02T18:09:31.355Z</time></trkpt><trkpt lat="44.9993575" lon="7.8092237"><ele>284.5</ele><time>2026-04-02T18:09:32.358Z</time></trkpt><trkpt lat="44.9993156" lon="7.8090904"><ele>285.25</ele><time>2026-04-02T18:09:33.386Z</time></trkpt><trkpt lat="44.9992583" lon="7.8088773"><ele>286.0</ele><time>2026-04-02T18:09:34.364Z</time></trkpt><trkpt lat="44.9991931" lon="7.8086248"><ele>285.66666666666663</ele><time>2026-04-02T18:09:35.375Z</time></trkpt><trkpt lat="44.9991335" lon="7.8083743"><ele>285.3333333333333</ele><time>2026-04-02T18:09:36.364Z</time></trkpt><trkpt lat="44.9990785" lon="7.8081362"><ele>285.0</ele><time>2026-04-02T18:09:37.376Z</time></trkpt><trkpt lat="44.9990376" lon="7.8079206"><ele>285.0</ele><time>2026-04-02T18:09:38.363Z</time></trkpt><trkpt lat="44.9990089" lon="7.8077109"><ele>285.0</ele><time>2026-04-02T18:09:39.361Z</time></trkpt><trkpt lat="44.9989914" lon="7.8075112"><ele>285.0</ele><time>2026-04-02T18:09:40.376Z</time></trkpt><trkpt lat="44.9989842" lon="7.8073091"><ele>285.0</ele><time>2026-04-02T18:09:41.357Z</time></trkpt><trkpt lat="44.9989859" lon="7.807083"><ele>285.3333333333333</ele><time>2026-04-02T18:09:42.356Z</time></trkpt><trkpt lat="44.9989949" lon="7.8068277"><ele>285.66666666666663</ele><time>2026-04-02T18:09:43.359Z</time></trkpt><trkpt lat="44.9990117" lon="7.8065404"><ele>286.0</ele><time>2026-04-02T18:09:44.369Z</time></trkpt><trkpt lat="44.9990311" lon="7.806261"><ele>286.0</ele><time>2026-04-02T18:09:45.362Z</time></trkpt><trkpt lat="44.9990519" lon="7.8059997"><ele>286.0</ele><time>2026-04-02T18:09:46.343Z</time></trkpt><trkpt lat="44.9990782" lon="7.8057291"><ele>286.0</ele><time>2026-04-02T18:09:47.364Z</time></trkpt><trkpt lat="44.9991112" lon="7.8054526"><ele>285.0</ele><time>2026-04-02T18:09:48.344Z</time></trkpt><trkpt lat="44.9991542" lon="7.80516"><ele>284.0</ele><time>2026-04-02T18:09:49.37Z</time></trkpt><trkpt lat="44.9992045" lon="7.8048763"><ele>283.0</ele><time>2026-04-02T18:09:50.346Z</time></trkpt><trkpt lat="44.9992652" lon="7.8045942"><ele>281.3333333333333</ele><time>2026-04-02T18:09:51.357Z</time></trkpt><trkpt lat="44.9993328" lon="7.8043286"><ele>279.6666666666667</ele><time>2026-04-02T18:09:52.374Z</time></trkpt><trkpt lat="44.9993931" lon="7.8040781"><ele>278.0</ele><time>2026-04-02T18:09:53.358Z</time></trkpt><trkpt lat="44.9994483" lon="7.8038174"><ele>278.0</ele><time>2026-04-02T18:09:54.365Z</time></trkpt><trkpt lat="44.9994945" lon="7.803551"><ele>278.0</ele><time>2026-04-02T18:09:55.371Z</time></trkpt><trkpt lat="44.999519" lon="7.8032948"><ele>278.0</ele><time>2026-04-02T18:09:56.354Z</time></trkpt><trkpt lat="44.9995332" lon="7.8030434"><ele>278.0</ele><time>2026-04-02T18:09:57.359Z</time></trkpt><trkpt lat="44.9995451" lon="7.8027954"><ele>278.0</ele><time>2026-04-02T18:09:58.36Z</time></trkpt><trkpt lat="44.9995432" lon="7.802556"><ele>278.0</ele><time>2026-04-02T18:09:59.363Z</time></trkpt><trkpt lat="44.9995239" lon="7.8023209"><ele>277.0</ele><time>2026-04-02T18:10:00.361Z</time></trkpt><trkpt lat="44.9994773" lon="7.8020742"><ele>276.0</ele><time>2026-04-02T18:10:01.354Z</time></trkpt><trkpt lat="44.9993919" lon="7.8018122"><ele>275.0</ele><time>2026-04-02T18:10:02.369Z</time></trkpt><trkpt lat="44.9992686" lon="7.801542"><ele>273.5</ele><time>2026-04-02T18:10:03.366Z</time></trkpt><trkpt lat="44.9991186" lon="7.8012749"><ele>272.0</ele><time>2026-04-02T18:10:04.348Z</time></trkpt><trkpt lat="44.9989707" lon="7.8009967"><ele>272.0</ele><time>2026-04-02T18:10:05.36Z</time></trkpt><trkpt lat="44.9988353" lon="7.8007209"><ele>272.0</ele><time>2026-04-02T18:10:06.356Z</time></trkpt><trkpt lat="44.9987027" lon="7.8004398"><ele>273.5</ele><time>2026-04-02T18:10:07.351Z</time></trkpt><trkpt lat="44.9985717" lon="7.8001576"><ele>275.0</ele><time>2026-04-02T18:10:08.353Z</time></trkpt><trkpt lat="44.9984405" lon="7.7998731"><ele>275.5</ele><time>2026-04-02T18:10:09.357Z</time></trkpt><trkpt lat="44.998315" lon="7.7995942"><ele>276.0</ele><time>2026-04-02T18:10:10.352Z</time></trkpt><trkpt lat="44.998197" lon="7.7993273"><ele>276.3333333333333</ele><time>2026-04-02T18:10:11.339Z</time></trkpt><trkpt lat="44.9980828" lon="7.7990672"><ele>276.66666666666663</ele><time>2026-04-02T18:10:12.356Z</time></trkpt><trkpt lat="44.9979637" lon="7.7988207"><ele>277.0</ele><time>2026-04-02T18:10:13.348Z</time></trkpt><trkpt lat="44.9978358" lon="7.7985895"><ele>277.3333333333333</ele><time>2026-04-02T18:10:14.346Z</time></trkpt><trkpt lat="44.9977038" lon="7.7983738"><ele>277.6666666666667</ele><time>2026-04-02T18:10:15.366Z</time></trkpt><trkpt lat="44.9975861" lon="7.798181"><ele>278.0</ele><time>2026-04-02T18:10:16.323Z</time></trkpt><trkpt lat="44.997468" lon="7.7979734"><ele>278.0</ele><time>2026-04-02T18:10:17.363Z</time></trkpt><trkpt lat="44.9973649" lon="7.7977616"><ele>278.0</ele><time>2026-04-02T18:10:18.372Z</time></trkpt><trkpt lat="44.9972871" lon="7.7975319"><ele>278.0</ele><time>2026-04-02T18:10:19.353Z</time></trkpt><trkpt lat="44.9972295" lon="7.797289"><ele>278.0</ele><time>2026-04-02T18:10:20.344Z</time></trkpt><trkpt lat="44.9971889" lon="7.7970119"><ele>278.0</ele><time>2026-04-02T18:10:21.367Z</time></trkpt><trkpt lat="44.9971785" lon="7.7967503"><ele>278.0</ele><time>2026-04-02T18:10:22.348Z</time></trkpt><trkpt lat="44.9972016" lon="7.7964719"><ele>279.0</ele><time>2026-04-02T18:10:23.36Z</time></trkpt><trkpt lat="44.9972625" lon="7.7961643"><ele>280.0</ele><time>2026-04-02T18:10:24.374Z</time></trkpt><trkpt lat="44.9973064" lon="7.7958662"><ele>281.0</ele><time>2026-04-02T18:10:25.352Z</time></trkpt><trkpt lat="44.9973449" lon="7.7955629"><ele>281.33333333333337</ele><time>2026-04-02T18:10:26.363Z</time></trkpt><trkpt lat="44.9973842" lon="7.7952741"><ele>281.6666666666667</ele><time>2026-04-02T18:10:27.369Z</time></trkpt><trkpt lat="44.9974347" lon="7.7949929"><ele>282.0</ele><time>2026-04-02T18:10:28.379Z</time></trkpt><trkpt lat="44.9975104" lon="7.7947137"><ele>282.0</ele><time>2026-04-02T18:10:29.358Z</time></trkpt><trkpt lat="44.9976067" lon="7.7944738"><ele>282.0</ele><time>2026-04-02T18:10:30.368Z</time></trkpt><trkpt lat="44.9976924" lon="7.7942457"><ele>282.0</ele><time>2026-04-02T18:10:31.355Z</time></trkpt><trkpt lat="44.9977619" lon="7.7940259"><ele>282.0</ele><time>2026-04-02T18:10:32.328Z</time></trkpt><trkpt lat="44.9978139" lon="7.793792"><ele>282.0</ele><time>2026-04-02T18:10:33.36Z</time></trkpt><trkpt lat="44.9978412" lon="7.7935272"><ele>282.0</ele><time>2026-04-02T18:10:34.355Z</time></trkpt><trkpt lat="44.9978506" lon="7.7932256"><ele>281.5</ele><time>2026-04-02T18:10:35.348Z</time></trkpt><trkpt lat="44.9978451" lon="7.7928686"><ele>281.0</ele><time>2026-04-02T18:10:36.335Z</time></trkpt><trkpt lat="44.9978464" lon="7.7925025"><ele>280.0</ele><time>2026-04-02T18:10:37.362Z</time></trkpt><trkpt lat="44.9978532" lon="7.7921597"><ele>279.0</ele><time>2026-04-02T18:10:38.348Z</time></trkpt><trkpt lat="44.9978646" lon="7.7918205"><ele>277.0</ele><time>2026-04-02T18:10:39.348Z</time></trkpt><trkpt lat="44.9978756" lon="7.7914875"><ele>275.0</ele><time>2026-04-02T18:10:40.357Z</time></trkpt><trkpt lat="44.9978873" lon="7.7911542"><ele>274.5</ele><time>2026-04-02T18:10:41.354Z</time></trkpt><trkpt lat="44.9978959" lon="7.7908151"><ele>274.0</ele><time>2026-04-02T18:10:42.369Z</time></trkpt><trkpt lat="44.9979065" lon="7.7904851"><ele>273.3333333333333</ele><time>2026-04-02T18:10:43.358Z</time></trkpt><trkpt lat="44.9979208" lon="7.7901573"><ele>272.6666666666667</ele><time>2026-04-02T18:10:44.351Z</time></trkpt><trkpt lat="44.997935" lon="7.7898581"><ele>272.0</ele><time>2026-04-02T18:10:45.311Z</time></trkpt><trkpt lat="44.9979497" lon="7.7895482"><ele>271.6666666666667</ele><time>2026-04-02T18:10:46.337Z</time></trkpt><trkpt lat="44.9979639" lon="7.7892583"><ele>271.3333333333333</ele><time>2026-04-02T18:10:47.362Z</time></trkpt><trkpt lat="44.9979776" lon="7.7889819"><ele>271.0</ele><time>2026-04-02T18:10:48.365Z</time></trkpt><trkpt lat="44.9979885" lon="7.7887087"><ele>271.0</ele><time>2026-04-02T18:10:49.37Z</time></trkpt><trkpt lat="44.997997" lon="7.788453"><ele>271.0</ele><time>2026-04-02T18:10:50.346Z</time></trkpt><trkpt lat="44.9980021" lon="7.7881953"><ele>271.0</ele><time>2026-04-02T18:10:51.355Z</time></trkpt><trkpt lat="44.9980016" lon="7.7879431"><ele>271.0</ele><time>2026-04-02T18:10:52.357Z</time></trkpt><trkpt lat="44.9979875" lon="7.7876966"><ele>271.0</ele><time>2026-04-02T18:10:53.362Z</time></trkpt><trkpt lat="44.9979658" lon="7.78747"><ele>271.0</ele><time>2026-04-02T18:10:54.344Z</time></trkpt><trkpt lat="44.9979436" lon="7.7872419"><ele>271.0</ele><time>2026-04-02T18:10:55.346Z</time></trkpt><trkpt lat="44.9979302" lon="7.7870212"><ele>271.0</ele><time>2026-04-02T18:10:56.369Z</time></trkpt><trkpt lat="44.9979301" lon="7.7868184"><ele>271.0</ele><time>2026-04-02T18:10:57.347Z</time></trkpt><trkpt lat="44.9979474" lon="7.7866013"><ele>270.66666666666663</ele><time>2026-04-02T18:10:58.352Z</time></trkpt><trkpt lat="44.9979827" lon="7.7863908"><ele>270.3333333333333</ele><time>2026-04-02T18:10:59.319Z</time></trkpt><trkpt lat="44.9980273" lon="7.7861512"><ele>270.0</ele><time>2026-04-02T18:11:00.363Z</time></trkpt><trkpt lat="44.9980722" lon="7.785907"><ele>269.3333333333333</ele><time>2026-04-02T18:11:01.357Z</time></trkpt><trkpt lat="44.9981163" lon="7.7856458"><ele>268.66666666666663</ele><time>2026-04-02T18:11:02.348Z</time></trkpt><trkpt lat="44.9981591" lon="7.7853873"><ele>268.0</ele><time>2026-04-02T18:11:03.352Z</time></trkpt><trkpt lat="44.9981977" lon="7.7851508"><ele>268.0</ele><time>2026-04-02T18:11:04.364Z</time></trkpt><trkpt lat="44.9982287" lon="7.7849467"><ele>268.0</ele><time>2026-04-02T18:11:05.385Z</time></trkpt><trkpt lat="44.9982442" lon="7.7847932"><ele>268.0</ele><time>2026-04-02T18:11:06.366Z</time></trkpt><trkpt lat="44.9982521" lon="7.7846567"><ele>268.0</ele><time>2026-04-02T18:11:07.365Z</time></trkpt><trkpt lat="44.9982568" lon="7.7845176"><ele>268.0</ele><time>2026-04-02T18:11:08.353Z</time></trkpt><trkpt lat="44.9982637" lon="7.7843661"><ele>268.0</ele><time>2026-04-02T18:11:09.347Z</time></trkpt><trkpt lat="44.9982775" lon="7.7841888"><ele>268.0</ele><time>2026-04-02T18:11:10.336Z</time></trkpt><trkpt lat="44.9982986" lon="7.7839971"><ele>268.0</ele><time>2026-04-02T18:11:11.356Z</time></trkpt><trkpt lat="44.9983338" lon="7.7837904"><ele>268.4</ele><time>2026-04-02T18:11:12.363Z</time></trkpt><trkpt lat="44.9983792" lon="7.7836124"><ele>268.8</ele><time>2026-04-02T18:11:13.362Z</time></trkpt><trkpt lat="44.9984301" lon="7.7834727"><ele>269.2</ele><time>2026-04-02T18:11:14.365Z</time></trkpt><trkpt lat="44.9984755" lon="7.7833708"><ele>269.6</ele><time>2026-04-02T18:11:15.36Z</time></trkpt><trkpt lat="44.9985479" lon="7.7832574"><ele>270.0</ele><time>2026-04-02T18:11:17.357Z</time></trkpt><trkpt lat="44.9985923" lon="7.7831824"><ele>270.4</ele><time>2026-04-02T18:11:18.37Z</time></trkpt><trkpt lat="44.9986354" lon="7.7830703"><ele>270.8</ele><time>2026-04-02T18:11:19.348Z</time></trkpt><trkpt lat="44.9986743" lon="7.782932"><ele>271.2</ele><time>2026-04-02T18:11:20.358Z</time></trkpt><trkpt lat="44.998707" lon="7.7827755"><ele>271.6</ele><time>2026-04-02T18:11:21.36Z</time></trkpt><trkpt lat="44.9987331" lon="7.7826168"><ele>272.0</ele><time>2026-04-02T18:11:22.339Z</time></trkpt><trkpt lat="44.9987461" lon="7.782455"><ele>273.0</ele><time>2026-04-02T18:11:23.359Z</time></trkpt><trkpt lat="44.9987452" lon="7.7822939"><ele>274.0</ele><time>2026-04-02T18:11:24.356Z</time></trkpt><trkpt lat="44.998744" lon="7.7821281"><ele>275.0</ele><time>2026-04-02T18:11:25.356Z</time></trkpt><trkpt lat="44.9987462" lon="7.7819598"><ele>276.0</ele><time>2026-04-02T18:11:26.329Z</time></trkpt><trkpt lat="44.998763" lon="7.7817845"><ele>276.75</ele><time>2026-04-02T18:11:27.358Z</time></trkpt><trkpt lat="44.9987943" lon="7.7816369"><ele>277.5</ele><time>2026-04-02T18:11:28.368Z</time></trkpt><trkpt lat="44.9988429" lon="7.7814787"><ele>278.25</ele><time>2026-04-02T18:11:29.361Z</time></trkpt><trkpt lat="44.998926" lon="7.781322"><ele>279.0</ele><time>2026-04-02T18:11:30.394Z</time></trkpt><trkpt lat="44.9990201" lon="7.7811802"><ele>279.0</ele><time>2026-04-02T18:11:31.364Z</time></trkpt><trkpt lat="44.9990948" lon="7.7810533"><ele>279.0</ele><time>2026-04-02T18:11:32.368Z</time></trkpt><trkpt lat="44.9991506" lon="7.7809439"><ele>279.0</ele><time>2026-04-02T18:11:33.36Z</time></trkpt><trkpt lat="44.9991839" lon="7.7808566"><ele>279.0</ele><time>2026-04-02T18:11:34.336Z</time></trkpt><trkpt lat="44.9992174" lon="7.7807701"><ele>279.0</ele><time>2026-04-02T18:11:36.356Z</time></trkpt><trkpt lat="44.9992834" lon="7.7807805"><ele>279.0</ele><time>2026-04-02T18:11:38.343Z</time></trkpt><trkpt lat="44.9993604" lon="7.7807996"><ele>278.99999999999994</ele><time>2026-04-02T18:11:41.377Z</time></trkpt><trkpt lat="44.9993662" lon="7.7808982"><ele>279.0</ele><time>2026-04-02T18:12:13.36Z</time></trkpt><trkpt lat="44.9994114" lon="7.7809669"><ele>279.0</ele><time>2026-04-02T18:12:36.342Z</time></trkpt><trkpt lat="44.9993835" lon="7.781056"><ele>279.0</ele><time>2026-04-02T18:14:04.366Z</time></trkpt><trkpt lat="44.9993574" lon="7.7811417"><ele>279.0</ele><time>2026-04-02T18:14:12.325Z</time></trkpt><trkpt lat="44.999298" lon="7.7811975"><ele>278.99999999999994</ele><time>2026-04-02T18:14:33.42Z</time></trkpt><trkpt lat="44.9992657" lon="7.781288"><ele>279.0</ele><time>2026-04-02T18:14:37.391Z</time></trkpt><trkpt lat="44.9992262" lon="7.7813701"><ele>278.1666666666667</ele><time>2026-04-02T18:14:44.433Z</time></trkpt><trkpt lat="44.9993078" lon="7.7812444"><ele>277.3333333333333</ele><time>2026-04-02T18:15:31.631Z</time></trkpt><trkpt lat="44.9993633" lon="7.7812928"><ele>276.5</ele><time>2026-04-02T18:15:47.396Z</time></trkpt><trkpt lat="44.9993426" lon="7.7812065"><ele>275.66666666666663</ele><time>2026-04-02T18:17:29.413Z</time></trkpt><trkpt lat="44.9993315" lon="7.7813074"><ele>274.8333333333333</ele><time>2026-04-02T18:17:35.401Z</time></trkpt><trkpt lat="44.9993971" lon="7.7813057"><ele>274.0</ele><time>2026-04-02T18:17:51.41Z</time></trkpt><trkpt lat="44.9993805" lon="7.7812095"><ele>274.0</ele><time>2026-04-02T18:17:53.391Z</time></trkpt><trkpt lat="44.9994355" lon="7.7813658"><ele>274.0</ele><time>2026-04-02T18:21:08.425Z</time></trkpt><trkpt lat="44.9996173" lon="7.7813758"><ele>274.0</ele><time>2026-04-02T18:21:14.39Z</time></trkpt><trkpt lat="44.9996785" lon="7.7812841"><ele>274.0</ele><time>2026-04-02T18:21:16.455Z</time></trkpt><trkpt lat="44.9996269" lon="7.7813432"><ele>274.0</ele><time>2026-04-02T18:21:30.405Z</time></trkpt><trkpt lat="44.9995581" lon="7.7814026"><ele>274.0</ele><time>2026-04-02T18:21:33.416Z</time></trkpt><trkpt lat="44.999495" lon="7.7814147"><ele>274.0</ele><time>2026-04-02T18:21:35.409Z</time></trkpt><trkpt lat="44.9994107" lon="7.7813719"><ele>274.0</ele><time>2026-04-02T18:21:37.417Z</time></trkpt><trkpt lat="44.9993056" lon="7.7812454"><ele>274.0</ele><time>2026-04-02T18:21:38.388Z</time></trkpt><trkpt lat="44.9993781" lon="7.7812029"><ele>274.0</ele><time>2026-04-02T18:22:13.4Z</time></trkpt><trkpt lat="44.9993235" lon="7.7812691"><ele>274.0</ele><time>2026-04-02T18:22:27.356Z</time></trkpt><trkpt lat="44.9992795" lon="7.7813722"><ele>274.0</ele><time>2026-04-02T18:22:29.421Z</time></trkpt><trkpt lat="44.9992224" lon="7.7813095"><ele>274.0</ele><time>2026-04-02T18:22:34.403Z</time></trkpt><trkpt lat="44.9992273" lon="7.7811029"><ele>274.0</ele><time>2026-04-02T18:22:44.39Z</time></trkpt><trkpt lat="44.9992843" lon="7.7810632"><ele>274.0</ele><time>2026-04-02T18:23:00.426Z</time></trkpt><trkpt lat="44.9993057" lon="7.7812057"><ele>274.0</ele><time>2026-04-02T18:27:30.409Z</time></trkpt><trkpt lat="44.9992422" lon="7.7812427"><ele>274.0</ele><time>2026-04-02T18:29:41.411Z</time></trkpt><trkpt lat="44.9991809" lon="7.7812809"><ele>274.0</ele><time>2026-04-02T18:29:44.415Z</time></trkpt><trkpt lat="44.9993068" lon="7.7812479"><ele>274.0</ele><time>2026-04-02T18:30:24.404Z</time></trkpt><trkpt lat="44.9993063" lon="7.7811562"><ele>274.0</ele><time>2026-04-02T18:40:40.425Z</time></trkpt><trkpt lat="44.9992648" lon="7.7810531"><ele>274.0</ele><time>2026-04-02T18:40:43.421Z</time></trkpt><trkpt lat="44.9993133" lon="7.7811352"><ele>274.0</ele><time>2026-04-02T18:40:50.436Z</time></trkpt><trkpt lat="44.9993614" lon="7.7812316"><ele>274.0</ele><time>2026-04-02T18:40:57.42Z</time></trkpt><trkpt lat="44.9992832" lon="7.7813992"><ele>274.0</ele><time>2026-04-02T18:41:00.437Z</time></trkpt><trkpt lat="44.9992336" lon="7.7813429"><ele>274.0</ele><time>2026-04-02T18:41:03.433Z</time></trkpt><trkpt lat="44.9993321" lon="7.7811632"><ele>274.0</ele><time>2026-04-02T18:41:23.395Z</time></trkpt><trkpt lat="44.9993663" lon="7.7810878"><ele>274.0</ele><time>2026-04-02T18:41:29.361Z</time></trkpt><trkpt lat="44.9993958" lon="7.7812045"><ele>274.0</ele><time>2026-04-02T18:41:57.448Z</time></trkpt><trkpt lat="44.9994401" lon="7.7813125"><ele>274.0</ele><time>2026-04-02T18:42:00.416Z</time></trkpt><trkpt lat="44.9994185" lon="7.781397"><ele>274.0</ele><time>2026-04-02T18:42:01.422Z</time></trkpt><trkpt lat="44.9993878" lon="7.7814808"><ele>274.0</ele><time>2026-04-02T18:42:02.419Z</time></trkpt><trkpt lat="44.9992487" lon="7.7817061"><ele>274.0</ele><time>2026-04-02T18:42:04.435Z</time></trkpt><trkpt lat="44.9992917" lon="7.7812909"><ele>274.0</ele><time>2026-04-02T18:42:05.423Z</time></trkpt><trkpt lat="44.9992311" lon="7.7812283"><ele>274.0</ele><time>2026-04-02T18:42:08.445Z</time></trkpt><trkpt lat="44.9991683" lon="7.7812108"><ele>274.0</ele><time>2026-04-02T18:42:11.437Z</time></trkpt><trkpt lat="44.9991933" lon="7.7813787"><ele>274.0</ele><time>2026-04-02T18:42:14.435Z</time></trkpt><trkpt lat="44.9993024" lon="7.7811866"><ele>274.0</ele><time>2026-04-02T18:42:15.367Z</time></trkpt><trkpt lat="44.999287" lon="7.7810937"><ele>274.0</ele><time>2026-04-02T18:42:24.087Z</time></trkpt><trkpt lat="44.9993447" lon="7.7811725"><ele>274.0</ele><time>2026-04-02T18:42:51.277Z</time></trkpt><trkpt lat="44.9994166" lon="7.7811881"><ele>274.0</ele><time>2026-04-02T18:43:22.433Z</time></trkpt><trkpt lat="44.9993641" lon="7.7812704"><ele>274.00000000000006</ele><time>2026-04-02T18:43:27.447Z</time></trkpt><trkpt lat="44.999373" lon="7.7813661"><ele>274.0</ele><time>2026-04-02T18:43:53.404Z</time></trkpt><trkpt lat="44.9993414" lon="7.781266"><ele>274.0</ele><time>2026-04-02T18:43:57.406Z</time></trkpt><trkpt lat="44.9992731" lon="7.7812527"><ele>274.0</ele><time>2026-04-02T18:44:03.439Z</time></trkpt><trkpt lat="44.9992437" lon="7.7811619"><ele>274.0</ele><time>2026-04-02T18:44:12.451Z</time></trkpt><trkpt lat="44.9991862" lon="7.7812059"><ele>274.00000000000006</ele><time>2026-04-02T18:44:16.424Z</time></trkpt><trkpt lat="44.9992607" lon="7.7811642"><ele>274.0</ele><time>2026-04-02T18:44:20.421Z</time></trkpt><trkpt lat="44.9993255" lon="7.7811368"><ele>274.00000000000006</ele><time>2026-04-02T18:44:29.435Z</time></trkpt><trkpt lat="44.9993646" lon="7.7810491"><ele>274.0</ele><time>2026-04-02T18:44:33.432Z</time></trkpt><trkpt lat="44.9993904" lon="7.7811388"><ele>274.0</ele><time>2026-04-02T18:46:48.428Z</time></trkpt><trkpt lat="44.9994399" lon="7.7812146"><ele>274.0</ele><time>2026-04-02T18:46:50.426Z</time></trkpt><trkpt lat="44.9993558" lon="7.7812049"><ele>274.0</ele><time>2026-04-02T18:47:53.442Z</time></trkpt><trkpt lat="44.9994395" lon="7.7812153"><ele>274.00000000000006</ele><time>2026-04-02T18:48:26.435Z</time></trkpt><trkpt lat="44.9995033" lon="7.7812345"><ele>274.0</ele><time>2026-04-02T18:48:33.432Z</time></trkpt><trkpt lat="44.9994104" lon="7.781249"><ele>274.00000000000006</ele><time>2026-04-02T18:48:54.436Z</time></trkpt><trkpt lat="44.9993641" lon="7.7811778"><ele>274.0</ele><time>2026-04-02T18:49:25.442Z</time></trkpt><trkpt lat="44.9993261" lon="7.7810968"><ele>274.0</ele><time>2026-04-02T18:49:38.438Z</time></trkpt><trkpt lat="44.9993977" lon="7.7810858"><ele>274.0</ele><time>2026-04-02T18:49:46.443Z</time></trkpt><trkpt lat="44.999406" lon="7.7809947"><ele>274.0</ele><time>2026-04-02T18:49:51.448Z</time></trkpt><trkpt lat="44.9993575" lon="7.7811245"><ele>274.00000000000006</ele><time>2026-04-02T18:50:06.441Z</time></trkpt><trkpt lat="44.9992931" lon="7.7811529"><ele>274.0</ele><time>2026-04-02T18:50:11.432Z</time></trkpt><trkpt lat="44.9993446" lon="7.7810854"><ele>274.0</ele><time>2026-04-02T18:50:15.438Z</time></trkpt><trkpt lat="44.9994058" lon="7.7811073"><ele>274.0</ele><time>2026-04-02T18:57:18.456Z</time></trkpt><trkpt lat="44.999476" lon="7.7811198"><ele>274.0</ele><time>2026-04-02T18:57:38.433Z</time></trkpt><trkpt lat="44.999421" lon="7.7810479"><ele>274.0</ele><time>2026-04-02T18:57:58.445Z</time></trkpt><trkpt lat="44.9993638" lon="7.7811557"><ele>274.0</ele><time>2026-04-02T18:58:10.46Z</time></trkpt><trkpt lat="44.9992934" lon="7.7811541"><ele>274.0</ele><time>2026-04-02T18:58:15.442Z</time></trkpt><trkpt lat="44.9993772" lon="7.7811181"><ele>274.0</ele><time>2026-04-02T18:58:41.459Z</time></trkpt><trkpt lat="44.9994579" lon="7.7811775"><ele>274.0</ele><time>2026-04-02T18:59:21.45Z</time></trkpt><trkpt lat="44.9993774" lon="7.7811992"><ele>274.0</ele><time>2026-04-02T18:59:23.457Z</time></trkpt><trkpt lat="44.9993238" lon="7.7812502"><ele>274.0</ele><time>2026-04-02T18:59:35.459Z</time></trkpt><trkpt lat="44.9993614" lon="7.7811562"><ele>274.0</ele><time>2026-04-02T19:01:09.402Z</time></trkpt><trkpt lat="44.999308" lon="7.7810762"><ele>274.0</ele><time>2026-04-02T19:02:08.403Z</time></trkpt><trkpt lat="44.9993474" lon="7.7811525"><ele>274.0</ele><time>2026-04-02T19:02:46.447Z</time></trkpt><trkpt lat="44.9992823" lon="7.7811809"><ele>274.0</ele><time>2026-04-02T19:32:19.482Z</time></trkpt><trkpt lat="44.99934" lon="7.7811177"><ele>274.0</ele><time>2026-04-02T19:32:29.301Z</time></trkpt><trkpt lat="44.9993211" lon="7.7812051"><ele>274.0</ele><time>2026-04-02T19:32:51.484Z</time></trkpt><trkpt lat="44.9993482" lon="7.7810665"><ele>274.0</ele><time>2026-04-02T19:33:23.493Z</time></trkpt><trkpt lat="44.9992903" lon="7.7811701"><ele>274.0</ele><time>2026-04-02T19:33:39.47Z</time></trkpt><trkpt lat="44.9993262" lon="7.7812589"><ele>274.0</ele><time>2026-04-02T19:33:47.476Z</time></trkpt><trkpt lat="44.9993608" lon="7.781174"><ele>274.0</ele><time>2026-04-02T21:07:40.548Z</time></trkpt></trkseg></trk></gpx>